AirNav   Pilot Hours Calculator
 
 1106 users online  

1K2 Lindsay Municipal Airport
Lindsay, Oklahoma, USA

GOING TO LINDSAY?


FAA INFORMATION EFFECTIVE 15 JULY 2021

Location

FAA Identifier: 1K2
Lat/Long: 34-50-58.0250N 097-35-07.0500W
34-50.967083N 097-35.117500W
34.8494514,-97.5852917
(estimated)
Elevation: 968 ft. / 295 m (estimated)
Variation: 07E (1985)
From city: 2 miles NE of LINDSAY, OK
Time zone: UTC -5 (UTC -6 during Standard Time)
Zip code: 73052

Airport Operations

Airport use: Open to the public
Control tower: no
ARTCC: FORT WORTH CENTER
FSS: MC ALESTER FLIGHT SERVICE STATION
NOTAMs facility: MLC (NOTAM-D service available)
Attendance: UNATNDD
Wind indicator: lighted
Segmented circle: yes
Lights: ACTVT MIRL RY 01/19 - CTAF.
Beacon: white-green (lighted land airport)
Operates sunset to sunrise.

Airport Communications

CTAF: 122.9
WX AWOS-3 at PVJ (20 nm SE): 118.675 (405-238-4452)

Nearby radio navigation aids

VOR radial/distance  VOR name  Freq  Var
IRWr171/30.6WILL ROGERS VORTAC114.1007E

Airport Services

Parking: tiedowns
Airframe service: NONE
Powerplant service: NONE
Bottled oxygen: NONE
Bulk oxygen: NONE

Runway Information

Runway 1/19

Dimensions: 3010 x 60 ft. / 917 x 18 m
Surface: asphalt, in good condition
Weight bearing capacity: 
Single wheel: 4.0
Runway edge lights: medium intensity
RUNWAY 1  RUNWAY 19
Latitude: 34-50.727500N34-51.206667N
Longitude: 097-35.195833W097-35.039167W
Elevation: 967.9 ft.966.0 ft.
Traffic pattern: leftleft
Runway heading: 008 magnetic, 015 true188 magnetic, 195 true
Markings: basic, in good conditionbasic, in good condition
Touchdown point: yes, no lightsyes, no lights
Obstructions: 17 ft. tree, 340 ft. from runway, 8:1 slope to clear31 ft. trees, 590 ft. from runway, 125 ft. right of centerline, 12:1 slope to clear

Airport Ownership and Management from official FAA records

Ownership: Publicly-owned
Owner: CITY OF LINDSAY
PO BOX 708, 312 S. MAIN ST.
LINDSAY, OK 73052
Phone 405-756-2019
Manager: TOM INMAN
PO BOX 708, 312 S. MAIN ST.
LINDSAY, OK 73052
Phone 405-756-2019
CITY MANAGER.

Airport Operational Statistics

Aircraft based on the field: 5
Single engine airplanes: 4
Multi engine airplanes: 1
    
Aircraft operations: avg 39/month *
51% transient general aviation
49% local general aviation
<1% military
* for 12-month period ending 14 February 2020

Additional Remarks

660 FT AGL ANT 3.2 MI NORTH.
FOR CD CTC FORT WORTH ARTCC AT 817-858-7584.

Instrument Procedures

There are no published instrument procedures at 1K2.

Some nearby airports with instrument procedures:

1K4 - David Jay Perry Airport (19 nm N)
KPVJ - Pauls Valley Municipal Airport (20 nm SE)
KHMY - Muldrow Army Heliport (20 nm NE)
KCHK - Chickasha Municipal Airport (24 nm NW)
KOUN - University of Oklahoma Westheimer Airport (24 nm N)
 
Loc | Ops | Rwys | IFR | FBO | Links
Com | Nav | Svcs | Stats | Notes
Area around 1K2 (Lindsay Municipal Airport)
 
Road maps at: MapQuest Bing Google
 
Aerial photo
WARNING: Photo may not be current or correct
Aerial photo of 1K2 (Lindsay Municipal Airport)
Do you have a better or more recent aerial photo of Lindsay Municipal Airport that you would like to share? If so, please send us your photo.

 
Sectional chart

 
Airport distance calculator
Flying to Lindsay Municipal Airport? Find the distance to fly.

From to 1K2

Sunrise and sunset
Times for 02-Aug-2021
 Local
(UTC-5)
 Zulu
(UTC)
Morning civil twilight06:1411:14
Sunrise06:4211:42
Sunset20:3101:31
Evening civil twilight20:5901:59

Current date and time
Zulu (UTC)  03-Aug-2021 01:31:13
Local (UTC-5)  02-Aug-2021 20:31:13
 
METAR
KPVJ 
20nm SE 
030115Z AUTO 36005KT 10SM CLR 25/17 A3003 RMK AO2 T02540169
KOUN 
23nm N 
030045Z 01007KT 10SM CLR 26/16 A3004
KCHK 
24nm NW 
030110Z AUTO 03005KT 7SM CLR 25/17 A3004 RMK AO2 T02540169
KDUC 
30nm SW 
030115Z AUTO 05005KT 7SM CLR 26/16 A3007 RMK AO2 T02590156
KOKC 
32nm N 
030052Z 05010KT 8SM CLR 27/13 A3006 RMK AO2 SLP166 T02670133
KTIK 
36nm N 
030056Z AUTO 04005KT 10SM CLR 26/16 A3004 RMK AO2 SLP169 T02580158 $
TAF
KOUN 
23nm N 
021736Z 0218/0318 02009KT 6SM HZ SCT040 TEMPO 0311/0315 3SM HZ
NOTAMs
Click for the latest NOTAMs
NOTAMs are issued by the DoD/FAA and will open in a separate window not controlled by AirNav.

 

 
 

Would you like to see your business listed on this page?

 If your business provides an interesting product or service to pilots, flight crews, aircraft, or users of the Lindsay Municipal Airport, you should consider listing it here.  To start the listing process, click on the button below
 
Add a business
 

Other Pages about Lindsay Municipal Airport

Update a link
 
Copyright © AirNav, LLC. All rights reserved. Privacy Policy  Contact